createdAt,value
2022-08-20T00:01:38.702Z,59.46
2022-08-20T00:04:16.167Z,59.50
2022-08-20T00:06:46.461Z,59.64
2022-08-20T00:09:19.873Z,59.48
2022-08-20T00:11:52.363Z,59.53
2022-08-20T00:14:25.435Z,59.14
2022-08-20T00:17:01.980Z,59.12
2022-08-20T00:19:32.346Z,59.40
2022-08-20T00:22:09.000Z,59.76
2022-08-20T00:24:43.673Z,59.76
2022-08-20T00:27:10.992Z,60.23
2022-08-20T00:29:44.975Z,60.10
2022-08-20T00:32:17.054Z,59.84
2022-08-20T00:34:47.843Z,59.89
2022-08-20T00:37:20.941Z,60.15
2022-08-20T00:39:59.314Z,60.28
2022-08-20T00:42:26.795Z,60.35
2022-08-20T00:45:02.650Z,60.48
2022-08-20T00:47:30.593Z,60.73
2022-08-20T00:50:01.070Z,60.31
2022-08-20T00:52:34.434Z,60.95
2022-08-20T00:55:07.886Z,60.80
2022-08-20T00:57:43.890Z,60.10
2022-08-20T01:00:37.366Z,60.53
2022-08-20T01:03:13.805Z,60.69
2022-08-20T01:05:45.318Z,60.33
2022-08-20T01:08:13.107Z,60.33
2022-08-20T01:10:44.051Z,60.18
2022-08-20T01:13:14.225Z,60.76
2022-08-20T01:15:43.617Z,61.00
2022-08-20T01:18:15.806Z,61.56
2022-08-20T01:20:56.179Z,61.30
2022-08-20T01:23:55.573Z,61.82
2022-08-20T01:26:25.012Z,61.59
2022-08-20T01:29:06.877Z,61.80
2022-08-20T01:31:35.460Z,61.60
2022-08-20T01:34:07.332Z,61.53
2022-08-20T01:36:36.411Z,61.83
2022-08-20T01:39:05.029Z,61.31
2022-08-20T01:41:55.755Z,61.66
2022-08-20T01:44:25.946Z,62.05
2022-08-20T01:46:57.709Z,61.75
2022-08-20T01:49:28.258Z,62.08
2022-08-20T01:52:02.448Z,61.99
2022-08-20T01:54:32.847Z,62.49
2022-08-20T01:57:06.127Z,62.38
2022-08-20T01:59:47.407Z,62.59
2022-08-20T02:02:17.967Z,62.67
2022-08-20T02:04:45.422Z,62.90
2022-08-20T02:07:18.127Z,62.90
2022-08-20T02:09:48.582Z,63.18
2022-08-20T02:12:18.158Z,63.62
2022-08-20T02:14:59.188Z,63.99
2022-08-20T02:17:26.456Z,63.92
2022-08-20T02:19:59.636Z,64.19
2022-08-20T02:22:34.508Z,64.68
2022-08-20T02:25:02.268Z,64.37
2022-08-20T02:27:33.741Z,64.43
2022-08-20T02:30:05.151Z,64.23
2022-08-20T02:32:34.453Z,63.60
2022-08-20T02:35:06.043Z,63.33
2022-08-20T02:37:33.285Z,63.40
2022-08-20T02:40:00.801Z,62.03
2022-08-20T02:42:28.078Z,61.36
2022-08-20T02:44:55.298Z,62.38
2022-08-20T02:47:25.143Z,63.21
2022-08-20T02:49:52.498Z,64.16
2022-08-20T02:52:20.800Z,63.01
2022-08-20T02:54:52.303Z,62.09
2022-08-20T02:57:20.532Z,61.78
2022-08-20T02:59:47.905Z,62.45
2022-08-20T03:02:15.854Z,61.33
2022-08-20T03:04:43.075Z,61.04
2022-08-20T03:07:10.678Z,61.36
2022-08-20T03:09:38.353Z,61.26
2022-08-20T03:12:08.366Z,60.81
2022-08-20T03:14:37.482Z,61.01
2022-08-20T03:17:07.542Z,61.34
2022-08-20T03:19:37.446Z,61.21
2022-08-20T03:22:08.216Z,61.29
2022-08-20T03:24:35.397Z,61.18
2022-08-20T03:27:02.643Z,61.32
2022-08-20T03:29:29.826Z,61.77
2022-08-20T03:31:57.015Z,61.96
2022-08-20T03:34:24.625Z,61.72
2022-08-20T03:36:55.259Z,62.12
2022-08-20T03:39:25.284Z,62.00
2022-08-20T03:41:52.984Z,62.35
2022-08-20T03:44:23.215Z,62.54
2022-08-20T03:46:53.279Z,61.78
2022-08-20T03:49:24.132Z,61.75
2022-08-20T03:51:58.278Z,61.02
2022-08-20T03:54:30.231Z,61.61
2022-08-20T03:57:12.375Z,61.28
2022-08-20T03:59:46.628Z,61.43
2022-08-20T04:02:25.774Z,60.85
2022-08-20T04:04:58.997Z,61.56
2022-08-20T04:07:26.845Z,61.29
2022-08-20T04:09:57.093Z,61.72
2022-08-20T04:12:29.496Z,62.32
2022-08-20T04:15:00.292Z,61.46
2022-08-20T04:17:30.653Z,62.22
2022-08-20T04:20:07.121Z,61.64
2022-08-20T04:22:41.611Z,61.87
2022-08-20T04:25:24.018Z,62.32
2022-08-20T04:27:54.720Z,62.34
2022-08-20T04:30:23.210Z,62.18
2022-08-20T04:33:00.079Z,62.14
2022-08-20T04:35:31.149Z,63.34
2022-08-20T04:38:06.247Z,62.57
2022-08-20T04:40:37.081Z,63.04
2022-08-20T04:43:08.300Z,63.92
2022-08-20T04:45:45.639Z,62.89
2022-08-20T04:48:15.537Z,61.86
2022-08-20T04:50:46.549Z,60.72
2022-08-20T04:53:21.628Z,61.36
2022-08-20T04:55:56.267Z,60.53
2022-08-20T04:58:25.431Z,60.04
2022-08-20T05:00:55.383Z,60.20
2022-08-20T05:03:30.350Z,62.17
2022-08-20T05:06:10.068Z,61.62
2022-08-20T05:08:45.454Z,61.91
2022-08-20T05:11:33.052Z,62.29
2022-08-20T05:14:06.269Z,62.71
2022-08-20T05:16:36.776Z,62.61
2022-08-20T05:19:04.510Z,62.60
2022-08-20T05:21:32.280Z,61.48
2022-08-20T05:24:05.184Z,62.00
2022-08-20T05:26:32.386Z,60.86
2022-08-20T05:28:59.689Z,61.37
2022-08-20T05:31:32.204Z,62.33
2022-08-20T05:34:06.931Z,61.40
2022-08-20T05:36:34.096Z,61.16
2022-08-20T05:39:01.314Z,60.98
2022-08-20T05:41:32.465Z,60.80
2022-08-20T05:44:05.826Z,60.29
2022-08-20T05:46:36.976Z,59.25
2022-08-20T05:49:04.209Z,59.70
2022-08-20T05:51:31.483Z,60.08
2022-08-20T05:54:02.229Z,59.39
2022-08-20T05:56:33.910Z,59.19
2022-08-20T05:59:05.338Z,59.12
2022-08-20T06:01:37.697Z,58.79
2022-08-20T06:04:08.942Z,58.68
2022-08-20T06:06:46.292Z,58.09
2022-08-20T06:09:16.227Z,57.42
2022-08-20T06:11:46.382Z,56.67
2022-08-20T06:14:19.479Z,56.27
2022-08-20T06:16:57.569Z,56.26
2022-08-20T06:19:33.206Z,55.88
2022-08-20T06:22:02.242Z,55.82
2022-08-20T06:24:38.426Z,56.30
2022-08-20T06:27:14.616Z,55.52
2022-08-20T06:29:41.834Z,54.79
2022-08-20T06:32:15.379Z,55.61
2022-08-20T06:34:50.203Z,54.55
2022-08-20T06:37:20.533Z,54.72
2022-08-20T06:39:54.852Z,54.73
2022-08-20T06:42:25.366Z,54.12
2022-08-20T06:44:58.056Z,53.25
2022-08-20T06:47:32.306Z,52.90
2022-08-20T06:50:03.054Z,52.59
2022-08-20T06:52:51.613Z,52.29
2022-08-20T06:55:26.928Z,52.38
2022-08-20T06:58:02.439Z,51.21
2022-08-20T07:00:31.092Z,50.98
2022-08-20T07:03:02.003Z,51.70
2022-08-20T07:05:34.679Z,51.49
2022-08-20T07:08:05.067Z,50.27
2022-08-20T07:10:35.832Z,49.68
2022-08-20T07:13:04.609Z,49.63
2022-08-20T07:15:34.507Z,49.92
2022-08-20T07:18:04.203Z,49.43
2022-08-20T07:20:40.998Z,48.91
2022-08-20T07:23:12.975Z,48.92
2022-08-20T07:25:46.837Z,48.13
2022-08-20T07:28:21.621Z,48.69
2022-08-20T07:30:56.950Z,48.22
2022-08-20T07:33:33.788Z,48.62
2022-08-20T07:36:07.717Z,48.61
2022-08-20T07:38:45.505Z,47.16
2022-08-20T07:41:14.182Z,46.77
2022-08-20T07:43:42.080Z,46.10
2022-08-20T07:46:12.174Z,46.77
2022-08-20T07:48:43.257Z,46.61
2022-08-20T07:51:11.087Z,46.83
2022-08-20T07:53:41.061Z,45.90
2022-08-20T07:56:10.177Z,45.65
2022-08-20T07:58:44.449Z,45.15
2022-08-20T08:01:19.625Z,46.59
2022-08-20T08:03:52.111Z,45.26
2022-08-20T08:06:29.230Z,45.67
2022-08-20T08:09:05.597Z,44.82
2022-08-20T08:11:35.613Z,45.36
2022-08-20T08:14:06.627Z,45.55
2022-08-20T08:16:38.201Z,44.31
2022-08-20T08:19:06.965Z,44.63
2022-08-20T08:21:36.758Z,44.43
2022-08-20T08:24:10.041Z,43.92
2022-08-20T08:26:38.042Z,43.22
2022-08-20T08:29:05.706Z,44.53
2022-08-20T08:31:33.880Z,42.53
2022-08-20T08:34:01.277Z,42.75
2022-08-20T08:36:31.389Z,42.66
2022-08-20T08:38:58.930Z,41.68
2022-08-20T08:41:26.538Z,41.08
2022-08-20T08:43:55.345Z,40.95
2022-08-20T08:46:29.924Z,40.67
2022-08-20T08:49:00.989Z,40.81
2022-08-20T08:51:34.294Z,40.92
2022-08-20T08:54:06.599Z,40.86
2022-08-20T08:56:36.033Z,41.09
2022-08-20T08:59:10.763Z,40.67
2022-08-20T09:01:58.673Z,40.57
2022-08-20T09:04:32.615Z,40.88
2022-08-20T09:07:04.500Z,40.17
2022-08-20T09:09:39.560Z,39.86
2022-08-20T09:12:17.557Z,39.71
2022-08-20T09:14:48.404Z,39.54
2022-08-20T09:17:18.371Z,40.18
2022-08-20T09:19:49.662Z,40.67
2022-08-20T09:22:24.481Z,39.56
2022-08-20T09:24:51.898Z,39.21
2022-08-20T09:27:22.723Z,39.00
2022-08-20T09:29:50.773Z,40.26
2022-08-20T09:32:24.687Z,39.27
2022-08-20T09:34:59.988Z,39.35
2022-08-20T09:37:33.671Z,38.41
2022-08-20T09:40:04.534Z,39.16
2022-08-20T09:42:40.939Z,38.62
2022-08-20T09:45:12.259Z,38.35
2022-08-20T09:47:57.065Z,38.71
2022-08-20T09:50:28.686Z,37.78
2022-08-20T09:52:57.881Z,37.59
2022-08-20T09:55:36.934Z,38.65
2022-08-20T09:58:27.135Z,38.92
2022-08-20T10:01:14.047Z,39.01
2022-08-20T10:03:42.112Z,38.26
2022-08-20T10:06:18.492Z,38.37
2022-08-20T10:08:51.751Z,38.33
2022-08-20T10:11:24.062Z,38.62
2022-08-20T10:13:55.244Z,38.86
2022-08-20T10:16:23.255Z,39.48
2022-08-20T10:18:53.896Z,39.23
2022-08-20T10:21:24.620Z,37.84
2022-08-20T10:23:52.203Z,37.99
2022-08-20T10:26:22.583Z,37.61
2022-08-20T10:28:54.652Z,38.29
2022-08-20T10:31:24.549Z,38.95
2022-08-20T10:33:58.679Z,38.33
2022-08-20T10:36:29.334Z,37.98
2022-08-20T10:38:56.638Z,38.80
2022-08-20T10:41:38.365Z,39.43
2022-08-20T10:44:10.650Z,39.30
2022-08-20T10:46:42.009Z,39.67
2022-08-20T10:49:09.583Z,39.61
2022-08-20T10:51:42.695Z,39.01
2022-08-20T10:54:16.582Z,38.78
2022-08-20T10:56:43.827Z,38.36
2022-08-20T10:59:11.057Z,39.06
2022-08-20T11:01:40.960Z,39.21
2022-08-20T11:04:11.030Z,38.86
2022-08-20T11:06:41.354Z,38.41
2022-08-20T11:09:14.460Z,38.82
2022-08-20T11:11:45.358Z,39.92
2022-08-20T11:14:19.050Z,40.08
2022-08-20T11:16:46.257Z,39.35
2022-08-20T11:19:13.508Z,38.57
2022-08-20T11:21:43.366Z,38.99
2022-08-20T11:24:18.935Z,38.47
2022-08-20T11:26:50.966Z,39.44
2022-08-20T11:29:18.253Z,38.99
2022-08-20T11:31:45.469Z,38.71
2022-08-20T11:34:13.020Z,39.26
2022-08-20T11:36:40.714Z,38.86
2022-08-20T11:39:12.189Z,39.03
2022-08-20T11:41:40.495Z,38.49
2022-08-20T11:44:20.066Z,38.74
2022-08-20T11:46:48.951Z,38.30
2022-08-20T11:49:18.473Z,38.03
2022-08-20T11:51:49.861Z,38.31
2022-08-20T11:54:18.542Z,37.93
2022-08-20T11:56:49.563Z,38.41
2022-08-20T11:59:16.962Z,38.53
2022-08-20T12:02:03.051Z,38.88
2022-08-20T12:04:33.655Z,38.19
2022-08-20T12:09:56.290Z,38.45
2022-08-20T12:12:24.028Z,38.03
2022-08-20T12:14:51.909Z,38.02
2022-08-20T12:17:25.329Z,38.51
2022-08-20T12:19:54.220Z,38.86
2022-08-20T12:22:25.541Z,41.16
2022-08-20T12:24:54.273Z,40.57
2022-08-20T12:27:25.530Z,40.76
2022-08-20T12:29:57.722Z,40.98
2022-08-20T12:32:29.609Z,40.09
2022-08-20T12:34:59.751Z,39.40
2022-08-20T12:37:28.114Z,39.12
2022-08-20T12:40:00.718Z,39.42
2022-08-20T12:42:28.396Z,37.58
2022-08-20T12:44:55.660Z,37.90
2022-08-20T12:47:28.812Z,39.84
2022-08-20T12:50:01.052Z,37.45
2022-08-20T12:52:35.075Z,37.79
2022-08-20T12:55:04.032Z,38.07
2022-08-20T12:57:35.250Z,38.99
2022-08-20T13:00:17.884Z,38.32
2022-08-20T13:02:56.667Z,38.47
2022-08-20T13:05:35.503Z,37.92
2022-08-20T13:08:10.778Z,37.40
2022-08-20T13:10:46.734Z,37.41
2022-08-20T13:13:22.523Z,37.77
2022-08-20T13:16:09.289Z,38.06
2022-08-20T13:18:36.607Z,37.97
2022-08-20T13:21:09.973Z,37.50
2022-08-20T13:23:50.208Z,37.33
2022-08-20T13:26:35.646Z,37.52
2022-08-20T13:29:07.321Z,37.99
2022-08-20T13:31:34.844Z,37.93
2022-08-20T13:34:05.581Z,38.19
2022-08-20T13:36:33.029Z,37.46
2022-08-20T13:39:01.124Z,37.51
2022-08-20T13:41:33.479Z,38.80
2022-08-20T13:44:12.568Z,37.80
2022-08-20T13:46:40.636Z,37.62
2022-08-20T13:49:10.618Z,38.59
2022-08-20T13:51:40.824Z,37.61
2022-08-20T13:54:10.628Z,37.92
2022-08-20T13:56:42.059Z,38.82
2022-08-20T13:59:09.353Z,39.77
2022-08-20T14:01:39.853Z,38.94
2022-08-20T14:04:10.882Z,38.72
2022-08-20T14:06:41.003Z,38.59
2022-08-20T14:09:08.585Z,39.21
2022-08-20T14:11:38.748Z,38.82
2022-08-20T14:14:06.096Z,38.85
2022-08-20T14:16:37.341Z,38.62
2022-08-20T14:19:07.617Z,38.83
2022-08-20T14:21:40.836Z,38.99
2022-08-20T14:24:11.138Z,40.57
2022-08-20T14:26:41.101Z,38.76
2022-08-20T14:29:11.385Z,38.77
2022-08-20T14:31:47.722Z,39.38
2022-08-20T14:34:15.084Z,38.85
2022-08-20T14:36:42.917Z,38.46
2022-08-20T14:39:10.668Z,39.27
2022-08-20T14:41:41.217Z,38.95
2022-08-20T14:44:11.518Z,39.33
2022-08-20T14:46:39.018Z,39.16
2022-08-20T14:49:06.343Z,39.32
2022-08-20T14:51:33.711Z,39.87
2022-08-20T14:54:00.994Z,40.03
2022-08-20T14:56:29.063Z,39.86
2022-08-20T14:58:56.291Z,40.13
2022-08-20T15:01:24.479Z,39.94
2022-08-20T15:03:52.110Z,40.26
2022-08-20T15:06:22.172Z,40.81
2022-08-20T15:08:49.958Z,40.42
2022-08-20T15:11:17.187Z,40.44
2022-08-20T15:13:44.392Z,40.71
2022-08-20T15:16:11.584Z,41.11
2022-08-20T15:18:39.236Z,40.86
2022-08-20T15:21:10.112Z,40.25
2022-08-20T15:23:37.909Z,40.24
2022-08-20T15:26:05.474Z,40.26
2022-08-20T15:28:32.672Z,40.28
2022-08-20T15:31:00.503Z,40.94
2022-08-20T15:33:27.635Z,42.62
2022-08-20T15:35:59.332Z,42.16
2022-08-20T15:38:29.558Z,43.04
2022-08-20T15:40:56.931Z,42.66
2022-08-20T15:43:24.089Z,43.59
2022-08-20T15:45:51.280Z,45.94
2022-08-20T15:48:21.016Z,47.87
2022-08-20T15:50:58.829Z,49.15
2022-08-20T15:53:30.428Z,49.61
2022-08-20T15:56:03.096Z,51.01
2022-08-20T15:58:38.545Z,51.08
2022-08-20T16:01:25.717Z,51.87
2022-08-20T16:03:53.113Z,51.95
2022-08-20T16:06:25.168Z,52.93
2022-08-20T16:08:58.655Z,53.80
2022-08-20T16:11:44.550Z,54.64
2022-08-20T16:14:14.769Z,54.74
2022-08-20T16:16:46.462Z,55.01
2022-08-20T16:19:18.378Z,55.26
2022-08-20T16:21:46.187Z,56.24
2022-08-20T16:24:13.917Z,56.71
2022-08-20T16:26:56.789Z,56.54
2022-08-20T16:29:45.851Z,57.47
2022-08-20T16:32:13.065Z,56.34
2022-08-20T16:34:46.551Z,56.38
2022-08-20T16:37:13.751Z,55.49
2022-08-20T16:39:58.782Z,55.84
2022-08-20T16:42:31.007Z,57.61
2022-08-20T16:44:58.666Z,58.79
2022-08-20T16:47:30.781Z,63.73
2022-08-20T16:50:06.259Z,65.37
2022-08-20T16:52:33.510Z,65.03
2022-08-20T16:55:00.690Z,64.07
2022-08-20T16:57:28.538Z,63.95
2022-08-20T16:59:57.173Z,67.13
2022-08-20T17:02:24.493Z,66.04
2022-08-20T17:04:59.493Z,65.24
2022-08-20T17:07:50.163Z,69.34
2022-08-20T17:10:24.534Z,72.83
2022-08-20T17:12:53.401Z,75.52
2022-08-20T17:15:22.621Z,78.06
2022-08-20T17:17:49.974Z,79.45
2022-08-20T17:20:20.251Z,78.62
2022-08-20T17:22:50.269Z,77.06
2022-08-20T17:25:19.569Z,77.83
2022-08-20T17:27:47.299Z,77.17
2022-08-20T17:30:20.607Z,75.99
2022-08-20T17:32:58.304Z,76.47
2022-08-20T17:35:31.749Z,78.54
2022-08-20T17:38:00.194Z,76.43
2022-08-20T17:40:43.099Z,77.52
2022-08-20T17:43:22.025Z,77.17
2022-08-20T17:45:49.240Z,77.60
2022-08-20T17:48:36.729Z,76.61
2022-08-20T17:51:14.270Z,75.83
2022-08-20T17:53:59.292Z,75.91
2022-08-20T17:56:39.225Z,76.16
2022-08-20T17:59:24.065Z,76.08
2022-08-20T18:02:07.115Z,75.59
2022-08-20T18:04:38.058Z,73.79
2022-08-20T18:07:08.440Z,72.56
2022-08-20T18:09:50.067Z,72.71
2022-08-20T18:12:34.219Z,75.41
2022-08-20T18:15:24.634Z,74.28
2022-08-20T18:18:11.053Z,75.66
2022-08-20T18:20:38.247Z,76.10
2022-08-20T18:23:14.841Z,75.59
2022-08-20T18:25:56.006Z,74.83
2022-08-20T18:28:35.175Z,74.44
2022-08-20T18:31:10.701Z,73.98
2022-08-20T18:33:50.315Z,74.15
2022-08-20T18:36:25.161Z,74.61
2022-08-20T18:39:23.321Z,76.20
2022-08-20T18:42:10.553Z,78.86
2022-08-20T18:44:43.858Z,78.77
2022-08-20T18:47:26.851Z,78.50
2022-08-20T18:50:17.278Z,75.22
2022-08-20T18:52:55.851Z,73.74
2022-08-20T18:55:41.357Z,72.88
2022-08-20T18:58:14.575Z,72.13
2022-08-20T19:00:55.137Z,74.88
2022-08-20T19:06:28.740Z,70.31
2022-08-20T19:09:04.393Z,71.09
2022-08-20T19:11:47.950Z,72.77
2022-08-20T19:17:28.012Z,76.01
2022-08-20T19:20:19.713Z,76.50
2022-08-20T19:22:58.296Z,77.88
2022-08-20T19:25:39.295Z,77.43
2022-08-20T19:28:32.055Z,81.38
2022-08-20T19:31:19.204Z,80.84
2022-08-20T19:33:53.268Z,78.60
2022-08-20T19:36:22.389Z,79.66
2022-08-20T19:38:59.550Z,83.37
2022-08-20T19:41:39.904Z,84.08
2022-08-20T19:44:07.694Z,85.56
2022-08-20T19:46:43.974Z,85.50
2022-08-20T19:49:23.562Z,87.79
2022-08-20T19:52:13.195Z,87.23
2022-08-20T19:54:47.677Z,85.52
2022-08-20T19:57:20.367Z,84.02
2022-08-20T20:00:04.619Z,82.69
2022-08-20T20:02:36.896Z,85.39
2022-08-20T20:05:10.590Z,88.41
2022-08-20T20:10:32.355Z,90.80
2022-08-20T20:13:19.937Z,89.28
2022-08-20T20:15:49.110Z,91.39
2022-08-20T20:18:16.682Z,89.99
2022-08-20T20:20:57.353Z,89.54
2022-08-20T20:23:46.516Z,91.24
2022-08-20T20:26:23.762Z,89.83
2022-08-20T20:28:54.453Z,88.47
2022-08-20T20:31:28.285Z,90.42
2022-08-20T20:34:00.544Z,90.06
2022-08-20T20:36:36.376Z,89.82
2022-08-20T20:39:14.701Z,90.48
2022-08-20T20:41:50.817Z,91.42
2022-08-20T20:44:23.173Z,90.64
2022-08-20T20:46:53.286Z,89.71
2022-08-20T20:49:27.982Z,89.04
2022-08-20T20:52:06.509Z,90.03
2022-08-20T20:54:59.992Z,91.82
2022-08-20T20:57:38.539Z,92.29
2022-08-20T21:00:16.147Z,93.87
2022-08-20T21:02:52.634Z,90.50
2022-08-20T21:05:23.608Z,90.17
2022-08-20T21:07:54.012Z,92.30
2022-08-20T21:10:23.727Z,92.94
2022-08-20T21:12:54.449Z,91.90
2022-08-20T21:15:28.261Z,92.18
2022-08-20T21:18:04.073Z,91.14
2022-08-20T21:20:39.899Z,92.33
2022-08-20T21:23:13.415Z,92.04
2022-08-20T21:25:43.657Z,91.76
2022-08-20T21:28:10.992Z,89.57
2022-08-20T21:30:44.058Z,89.58
2022-08-20T21:33:17.150Z,89.25
2022-08-20T21:35:50.889Z,88.69
2022-08-20T21:38:26.328Z,89.05
2022-08-20T21:40:58.087Z,89.08
2022-08-20T21:43:28.343Z,87.20
2022-08-20T21:48:56.372Z,91.60
2022-08-20T21:51:27.787Z,90.17
2022-08-20T21:53:55.584Z,92.23
2022-08-20T21:56:23.318Z,91.82
2022-08-20T21:58:56.537Z,92.20
2022-08-20T22:01:26.658Z,90.84
2022-08-20T22:03:54.466Z,92.99
2022-08-20T22:06:24.325Z,93.40
2022-08-20T22:08:58.201Z,93.09
2022-08-20T22:11:33.563Z,93.16
2022-08-20T22:14:04.052Z,92.32
2022-08-20T22:16:35.889Z,92.53
2022-08-20T22:21:50.002Z,95.46
2022-08-20T22:27:26.827Z,96.86
2022-08-20T22:30:03.855Z,96.39
2022-08-20T22:32:51.757Z,96.73
2022-08-20T22:35:20.557Z,95.89
2022-08-20T22:37:51.592Z,95.43
2022-08-20T22:40:24.696Z,95.06
2022-08-20T22:42:52.509Z,95.54
2022-08-20T22:45:25.169Z,95.75
2022-08-20T22:47:53.089Z,96.45
2022-08-20T22:50:26.608Z,97.37
2022-08-20T22:53:06.238Z,97.51
2022-08-20T22:55:35.247Z,97.75
2022-08-20T22:58:05.134Z,98.81
2022-08-20T23:00:41.152Z,98.26
2022-08-20T23:03:39.434Z,98.21
2022-08-20T23:06:14.423Z,97.61
2022-08-20T23:08:51.405Z,97.54
2022-08-20T23:11:27.586Z,97.83
2022-08-20T23:14:08.188Z,90.10
2022-08-20T23:16:41.255Z,95.40
2022-08-20T23:19:22.300Z,97.66
2022-08-20T23:22:04.914Z,98.57
2022-08-20T23:24:39.472Z,99.13
2022-08-20T23:27:07.953Z,98.73
2022-08-20T23:29:36.671Z,98.44
2022-08-20T23:32:09.984Z,99.46
2022-08-20T23:34:44.050Z,98.80
2022-08-20T23:37:16.593Z,99.39
2022-08-20T23:39:47.673Z,100.00
2022-08-20T23:42:20.806Z,98.06
2022-08-20T23:47:37.134Z,96.55
2022-08-20T23:50:06.533Z,95.47
2022-08-20T23:52:40.285Z,96.60
2022-08-20T23:55:11.713Z,96.83
2022-08-20T23:57:42.451Z,96.79
